Friday, October 19, 2018, 2:53 AM EDT
Back to Local

KWAL, Wallops Flight Fac Airport

Location: Wallops Island, VA, United States Lat: 37.933
Local Time: 2:53 AM EDT ( 6:53 GMT) Lon: -75.467
Time Zone: US/Eastern Elev: 39 ft

Show me the last for .
Show Decoded

2018-10-19 01:54 METAR KWAL 190554Z AUTO 00000KT 10SM CLR 06/03 A3039 RMK AO2 SLP288 T00560028
                 10089 20050 56008 =
2018-10-19 00:54 METAR KWAL 190454Z AUTO 00000KT 10SM CLR 06/03 A3040 RMK AO2 SLP290 T00560028
                 401560056 =
2018-10-18 23:54 METAR KWAL 190354Z AUTO 00000KT 10SM CLR 06/03 A3040 RMK AO2 SLP292 T00610028 =
2018-10-18 22:54 METAR KWAL 190254Z AUTO 21003KT 10SM CLR 06/03 A3042 RMK AO2 SLP297 T00610028
                 53003 =
2018-10-18 21:54 METAR KWAL 190154Z 00000KT 10SM CLR 07/03 A3041 RMK AO2 SLP295 T00670028 =
2018-10-18 20:54 METAR KWAL 190054Z 00000KT 10SM CLR 08/03 A3041 RMK AO2 SLP293 T00780033 =
2018-10-18 19:54 METAR KWAL 182354Z 00000KT 10SM CLR 09/03 A3041 RMK AO2 SLP293 T00890028 10156
                 20072 53011 =
2018-10-18 18:54 METAR KWAL 182254Z 31003KT 10SM CLR 10/02 A3039 RMK AO2 SLP289 T01000022 =
2018-10-18 17:54 METAR KWAL 182154Z 31006KT 10SM CLR 12/01 A3038 RMK AO2 SLP284 T01220011 =
2018-10-18 16:54 METAR KWAL 182054Z 29009KT 10SM CLR 14/00 A3037 RMK AO2 SLP282 T01390000 55004 =
2018-10-18 15:54 METAR KWAL 181954Z 30008G16KT 10SM CLR 14/00 A3037 RMK AO2 SLP281 T01440000 =
2018-10-18 14:54 METAR KWAL 181854Z COR 30008KT 10SM FEW040 FEW250 14/00 A3038 RMK AO2 SLP284
                 T01440000 =
2018-10-18 13:54 METAR KWAL 181754Z 33008KT 10SM FEW045 FEW250 14/M01 A3039 RMK AO2 SLP286
                 T01441011 10150 20083 58010 =
2018-10-18 12:54 METAR KWAL 181654Z 34010KT 10SM FEW050 FEW250 14/M01 A3041 RMK AO2 SLP294
                 T01441011 =
2018-10-18 11:54 METAR KWAL 181554Z 35006KT 10SM CLR 14/M01 A3042 RMK AO2 SLP298 T01391006 =
2018-10-18 10:54 METAR KWAL 181454Z 34011KT 300V360 10SM CLR 13/M02 A3042 RMK AO2 SLP296
                 T01281017 50010 =
2018-10-18 09:54 METAR KWAL 181354Z 35014G19KT 10SM FEW040 FEW250 12/M02 A3042 RMK AO2 SLP297
                 T01171022 =
2018-10-18 08:54 METAR KWAL 181254Z COR 35009KT 10SM FEW040 FEW150 FEW250 11/00 A3041 RMK AO2
                 SLP293 T01060000 =
2018-10-18 07:54 METAR KWAL 181154Z 34006KT 10SM FEW040 FEW150 SCT250 08/02 A3039 RMK AO2 SLP287
                 T00830017 10117 20078 51029 =
2018-10-18 06:54 METAR KWAL 181054Z AUTO 02005KT 10SM CLR 08/02 A3037 RMK AO2 SLP281 T00830017 $
                 =
2018-10-18 05:54 METAR KWAL 180954Z AUTO 36006KT 10SM CLR 09/03 A3033 RMK AO2 SLP267 T00890028 $
                 =
2018-10-18 04:54 METAR KWAL 180854Z AUTO 34010KT 10SM CLR 10/03 A3030 RMK AO2 SLP257 T01000028
                 53028 $ =
2018-10-18 03:54 METAR KWAL 180754Z AUTO 36013KT 10SM CLR 11/03 A3027 RMK AO2 SLP245 T01060033 $
                 =
2018-10-18 02:54 METAR KWAL 180654Z AUTO 35008KT 10SM CLR 11/03 A3024 RMK AO2 SLP237 T01110033 $
                 =

Support USWX by starting your Amazon purchase here.